Pagrindinis puslapis
METAR-TAF:

METAR-TAF

Oro uostai :

Resifė, Pernambuco, Brazilija

platuma: 08-08S, ilguma: 034-55W, Aukštis: 19 m

Dabartinis oras

Ataskaita buvo paskelbta 21 minutes, ne 17:00 UTC
Vėjas 12 kt iš Pietryčių
Temperatūra 29°C
Drėgmė 62%
Slėgis 1011 hPa
Matomumas 10 km arba daugiau
Mažai debesys ne aukštis 2500 ft

METAR: SBRF 201700Z 13012KT 9999 FEW025 29/21 Q1011

Laikas: 14:21 (17:21 UTC)

Prognozė

Ataskaita buvo paskelbta 7 valandos ir 21 minutes, ne 10:00 UTC
Prognozė galioja nuo 20 metu 12 UTC su 21 metu 12 UTC
Vėjas 8 kt iš Rytų/Pietryčių
Matomumas: 8000 m
Išsisklaidę debesys ne aukštis 2300 ft
Tapsmas
nuo 20 metu 18 UTC su 20 metu 20 UTC
Vėjas 8 kt iš Rytų/Pietryčių
Tapsmas
nuo 21 metu 06 UTC su 21 metu 08 UTC
Su prošvaistėmis ne aukštis 2200 ft

TAF: SBRF 201000Z 2012/2112 12008KT 8000 SCT023 TX30/2016Z TN27/2108Z BECMG 2018/2020 12008KT BECMG 2106/2108 BKN022 RMK PAY

Orai ataskaitas ir orų prognozės (METAR, TAF).

turimą stotys yra geltonos ir raudonos taškus žemėlapyje.

Perkelti pele per norėdami pamatyti stoties vardą.

Tada spustelėkite, norėdami matyti oro stebėjimo ir prognozės.

Norėdami pakeisti žemėlapį: spustelėkite ant žalios mygtukų su juodo kryžiaus žemyn,; žalią mygtuką su brūkšneliu, jei norite nutolinti; arba žalių rodyklių gretimoms žemėlapius.


METAR-TAF: